createdAt,value
2017-07-11T00:01:16.627Z,47.07
2017-07-11T00:03:44.957Z,35.80
2017-07-11T00:06:13.273Z,37.20
2017-07-11T00:08:41.811Z,35.70
2017-07-11T00:11:10.908Z,26.70
2017-07-11T00:13:39.231Z,28.50
2017-07-11T00:16:07.572Z,25.93
2017-07-11T00:18:36.784Z,46.77
2017-07-11T00:21:05.114Z,12.87
2017-07-11T00:23:33.418Z,14.80
2017-07-11T00:26:01.782Z,13.80
2017-07-11T00:28:30.176Z,17.30
2017-07-11T00:30:58.674Z,17.87
2017-07-11T00:33:27.137Z,15.33
2017-07-11T00:35:56.445Z,19.60
2017-07-11T00:38:25.111Z,15.17
2017-07-11T00:40:54.203Z,18.97
2017-07-11T00:43:23.296Z,16.43
2017-07-11T00:45:51.752Z,13.57
2017-07-11T00:48:20.259Z,19.60
2017-07-11T00:50:49.342Z,18.70
2017-07-11T00:53:18.452Z,15.43
2017-07-11T00:55:46.800Z,12.63
2017-07-11T00:58:15.169Z,13.13
2017-07-11T01:00:43.705Z,13.20
2017-07-11T01:03:12.046Z,14.93
2017-07-11T01:05:40.385Z,17.13
2017-07-11T01:08:08.818Z,17.10
2017-07-11T01:10:37.159Z,13.70
2017-07-11T01:13:05.681Z,11.80
2017-07-11T01:15:34.752Z,12.60
2017-07-11T01:18:03.156Z,16.03
2017-07-11T01:20:31.751Z,13.50
2017-07-11T01:23:00.061Z,13.57
2017-07-11T01:25:28.402Z,13.80
2017-07-11T01:27:56.744Z,18.80
2017-07-11T01:30:25.089Z,12.17
2017-07-11T01:32:53.404Z,13.83
2017-07-11T01:35:22.720Z,19.67
2017-07-11T01:37:51.792Z,17.20
2017-07-11T01:40:20.722Z,21.13
2017-07-11T01:42:49.096Z,37.60
2017-07-11T01:45:17.483Z,32.40
2017-07-11T01:47:46.176Z,35.37
2017-07-11T01:50:14.492Z,33.87
2017-07-11T01:52:42.810Z,31.00
2017-07-11T01:55:11.386Z,28.07
2017-07-11T01:57:40.462Z,27.17
2017-07-11T02:00:08.870Z,25.50
2017-07-11T02:02:37.185Z,27.10
2017-07-11T02:05:05.724Z,24.20
2017-07-11T02:07:34.104Z,21.17
2017-07-11T02:10:02.451Z,25.80
2017-07-11T02:15:06.886Z,19.40
2017-07-11T02:17:35.217Z,16.13
2017-07-11T02:20:03.771Z,19.63
2017-07-11T02:22:32.242Z,18.67
2017-07-11T02:25:01.324Z,19.63
2017-07-11T02:27:29.639Z,23.50
2017-07-11T02:32:32.694Z,18.47
2017-07-11T02:35:01.808Z,19.80
2017-07-11T02:37:30.874Z,26.67
2017-07-11T02:39:59.925Z,28.27
2017-07-11T02:42:28.275Z,17.63
2017-07-11T02:44:57.341Z,19.53
2017-07-11T02:47:25.671Z,21.33
2017-07-11T02:49:53.966Z,20.57
2017-07-11T02:52:22.312Z,21.70
2017-07-11T02:54:50.628Z,17.90
2017-07-11T02:57:18.961Z,19.53
2017-07-11T02:59:47.274Z,19.60
2017-07-11T03:02:15.899Z,19.70
2017-07-11T03:04:44.980Z,19.53
2017-07-11T03:07:13.580Z,23.30
2017-07-11T03:09:42.679Z,22.13
2017-07-11T03:12:10.990Z,23.70
2017-07-11T03:14:39.327Z,20.67
2017-07-11T03:17:08.414Z,21.87
2017-07-11T03:19:36.839Z,23.03
2017-07-11T03:22:05.145Z,21.90
2017-07-11T03:24:33.448Z,16.80
2017-07-11T03:27:01.800Z,15.43
2017-07-11T03:29:30.114Z,16.27
2017-07-11T03:31:58.436Z,24.37
2017-07-11T03:34:26.750Z,23.93
2017-07-11T03:36:55.087Z,20.50
2017-07-11T03:39:23.399Z,17.77
2017-07-11T03:41:51.840Z,18.60
2017-07-11T03:44:20.960Z,14.50
2017-07-11T03:46:49.255Z,18.20
2017-07-11T03:49:17.589Z,16.70
2017-07-11T03:51:45.900Z,18.63
2017-07-11T03:54:15.123Z,16.30
2017-07-11T03:56:44.197Z,16.80
2017-07-11T03:59:12.503Z,20.33
2017-07-11T04:01:40.867Z,22.27
2017-07-11T04:04:09.172Z,20.00
2017-07-11T04:06:37.742Z,19.80
2017-07-11T04:09:06.803Z,22.07
2017-07-11T04:11:35.515Z,18.37
2017-07-11T04:14:04.718Z,19.87
2017-07-11T04:16:33.219Z,17.30
2017-07-11T04:19:02.708Z,16.27
2017-07-11T04:21:31.184Z,21.70
2017-07-11T04:23:59.563Z,19.50
2017-07-11T04:26:28.662Z,18.50
2017-07-11T04:28:57.445Z,32.20
2017-07-11T04:31:26.522Z,22.87
2017-07-11T04:33:54.916Z,24.80
2017-07-11T04:36:24.118Z,19.57
2017-07-11T04:38:53.187Z,23.90
2017-07-11T04:41:21.515Z,19.67
2017-07-11T04:43:49.835Z,21.80
2017-07-11T04:46:18.556Z,23.63
2017-07-11T04:48:46.881Z,22.73
2017-07-11T04:51:15.185Z,26.37
2017-07-11T04:53:43.510Z,22.77
2017-07-11T04:56:12.027Z,21.60
2017-07-11T04:58:40.359Z,24.40
2017-07-11T05:01:08.672Z,20.90
2017-07-11T05:03:37.209Z,23.33
2017-07-11T05:06:06.264Z,27.80
2017-07-11T05:08:34.573Z,24.57
2017-07-11T05:11:02.900Z,29.97
2017-07-11T05:13:31.204Z,30.40
2017-07-11T05:16:00.018Z,39.97
2017-07-11T05:18:28.327Z,32.57
2017-07-11T05:20:56.619Z,32.70
2017-07-11T05:23:24.928Z,30.73
2017-07-11T05:25:54.013Z,36.23
2017-07-11T05:28:23.122Z,38.53
2017-07-11T05:30:52.200Z,33.43
2017-07-11T05:33:21.305Z,40.23
2017-07-11T05:35:50.384Z,37.20
2017-07-11T05:38:18.715Z,43.10
2017-07-11T05:40:47.052Z,42.40
2017-07-11T05:43:15.640Z,37.97
2017-07-11T05:45:43.975Z,40.00
2017-07-11T05:48:12.315Z,40.90
2017-07-11T05:50:40.749Z,43.73
2017-07-11T05:53:09.064Z,40.10
2017-07-11T05:55:37.378Z,41.37
2017-07-11T05:58:05.701Z,44.30
2017-07-11T06:00:34.787Z,42.87
2017-07-11T06:03:04.015Z,45.03
2017-07-11T06:05:32.325Z,43.30
2017-07-11T06:08:00.639Z,40.10
2017-07-11T06:10:29.551Z,37.43
2017-07-11T06:12:57.862Z,37.37
2017-07-11T06:15:26.298Z,36.67
2017-07-11T06:17:54.623Z,37.10
2017-07-11T06:20:23.051Z,41.10
2017-07-11T06:22:51.354Z,37.47
2017-07-11T06:25:19.821Z,42.30
2017-07-11T06:27:48.926Z,35.73
2017-07-11T06:30:18.807Z,37.30
2017-07-11T06:32:47.159Z,40.37
2017-07-11T06:35:15.465Z,33.50
2017-07-11T06:37:44.803Z,36.40
2017-07-11T06:40:13.212Z,36.43
2017-07-11T06:42:41.543Z,32.33
2017-07-11T06:45:09.870Z,35.33
2017-07-11T06:47:38.183Z,35.63
2017-07-11T06:50:07.271Z,36.53
2017-07-11T06:52:35.571Z,37.50
2017-07-11T06:55:04.137Z,38.13
2017-07-11T06:57:33.199Z,36.03
2017-07-11T07:00:01.519Z,36.83
2017-07-11T07:02:29.880Z,39.50
2017-07-11T07:04:58.966Z,35.70
2017-07-11T07:07:27.283Z,32.03
2017-07-11T07:09:55.800Z,28.57
2017-07-11T07:12:24.540Z,31.47
2017-07-11T07:14:52.863Z,31.00
2017-07-11T07:17:21.172Z,27.70
2017-07-11T07:19:49.646Z,28.67
2017-07-11T07:22:17.952Z,26.10
2017-07-11T07:24:47.043Z,28.30
2017-07-11T07:27:15.355Z,24.40
2017-07-11T07:29:43.713Z,23.63
2017-07-11T07:32:12.014Z,25.70
2017-07-11T07:34:40.466Z,22.23
2017-07-11T07:37:08.780Z,24.93
2017-07-11T07:39:37.100Z,23.43
2017-07-11T07:42:05.447Z,24.30
2017-07-11T07:44:34.533Z,25.37
2017-07-11T07:47:02.902Z,22.93
2017-07-11T07:49:31.200Z,23.17
2017-07-11T07:52:00.403Z,21.53
2017-07-11T07:54:29.482Z,20.63
2017-07-11T07:56:57.813Z,22.70
2017-07-11T07:59:26.147Z,21.57
2017-07-11T08:01:54.434Z,23.40
2017-07-11T08:04:23.541Z,23.93
2017-07-11T08:06:52.611Z,23.37
2017-07-11T08:09:21.709Z,20.10
2017-07-11T08:11:50.788Z,20.03
2017-07-11T08:14:19.296Z,20.00
2017-07-11T08:16:47.602Z,21.90
2017-07-11T08:19:16.023Z,22.53
2017-07-11T08:21:44.344Z,23.90
2017-07-11T08:24:12.662Z,21.00
2017-07-11T08:26:41.011Z,24.13
2017-07-11T08:29:09.320Z,24.33
2017-07-11T08:31:37.648Z,23.20
2017-07-11T08:34:05.973Z,23.30
2017-07-11T08:36:34.491Z,27.30
2017-07-11T08:39:02.803Z,27.37
2017-07-11T08:41:31.123Z,25.97
2017-07-11T08:44:00.262Z,27.90
2017-07-11T08:46:28.582Z,32.10
2017-07-11T08:48:56.990Z,36.87
2017-07-11T08:51:26.101Z,29.83
2017-07-11T08:53:54.813Z,28.40
2017-07-11T08:56:23.116Z,32.00
2017-07-11T08:58:51.423Z,33.73
2017-07-11T09:01:20.519Z,31.80
2017-07-11T09:03:48.834Z,30.30
2017-07-11T09:06:17.173Z,32.93
2017-07-11T09:08:45.468Z,33.30
2017-07-11T09:11:13.812Z,31.43
2017-07-11T09:13:42.128Z,35.17
2017-07-11T09:16:10.598Z,32.37
2017-07-11T09:18:38.911Z,31.53
2017-07-11T09:21:07.256Z,34.10
2017-07-11T09:23:36.450Z,40.77
2017-07-11T09:26:04.777Z,40.90
2017-07-11T09:28:33.214Z,34.80
2017-07-11T09:31:01.521Z,35.30
2017-07-11T09:33:30.031Z,34.53
2017-07-11T09:35:58.368Z,35.07
2017-07-11T09:38:26.685Z,32.37
2017-07-11T09:40:55.102Z,32.63
2017-07-11T09:43:23.431Z,32.30
2017-07-11T09:45:51.721Z,30.87
2017-07-11T09:48:20.079Z,25.20
2017-07-11T09:50:48.387Z,29.37
2017-07-11T09:53:17.225Z,29.70
2017-07-11T09:55:45.531Z,28.03
2017-07-11T09:58:13.844Z,29.53
2017-07-11T10:00:42.201Z,34.23
2017-07-11T10:03:11.284Z,34.60
2017-07-11T10:05:39.663Z,33.53
2017-07-11T10:08:08.781Z,25.40
2017-07-11T10:10:37.152Z,39.50
2017-07-11T10:13:06.675Z,26.43
2017-07-11T10:15:35.346Z,21.93
2017-07-11T10:18:04.932Z,21.63
2017-07-11T10:20:33.227Z,19.40
2017-07-11T10:23:01.575Z,19.90
2017-07-11T10:25:29.902Z,21.97
2017-07-11T10:27:58.376Z,21.37
2017-07-11T10:30:26.689Z,24.07
2017-07-11T10:32:55.028Z,23.27
2017-07-11T10:37:58.783Z,23.13
2017-07-11T10:40:27.098Z,20.27
2017-07-11T10:42:55.402Z,20.93
2017-07-11T10:45:23.719Z,26.40
2017-07-11T10:47:52.029Z,24.07
2017-07-11T10:50:21.243Z,23.87
2017-07-11T10:52:50.315Z,22.00
2017-07-11T10:55:19.531Z,21.97
2017-07-11T10:57:47.881Z,23.47
2017-07-11T11:00:16.247Z,21.60
2017-07-11T11:02:44.632Z,22.13
2017-07-11T11:05:13.510Z,19.20
2017-07-11T11:07:42.661Z,18.43
2017-07-11T11:10:10.999Z,22.60
2017-07-11T11:12:40.244Z,20.63
2017-07-11T11:15:09.548Z,19.20
2017-07-11T11:17:37.911Z,18.23
2017-07-11T11:20:06.283Z,21.27
2017-07-11T11:22:35.759Z,23.30
2017-07-11T11:25:04.123Z,22.47
2017-07-11T11:27:33.238Z,17.63
2017-07-11T11:30:02.355Z,36.73
2017-07-11T11:32:30.704Z,26.10
2017-07-11T11:34:59.487Z,26.40
2017-07-11T11:37:27.800Z,22.67
2017-07-11T11:39:56.135Z,28.93
2017-07-11T11:42:24.670Z,37.80
2017-07-11T11:44:52.986Z,25.63
2017-07-11T11:47:21.352Z,25.80
2017-07-11T11:49:49.667Z,28.30
2017-07-11T11:52:19.201Z,27.23
2017-07-11T11:54:48.264Z,22.83
2017-07-11T11:57:17.481Z,20.97
2017-07-11T11:59:46.560Z,24.07
2017-07-11T12:02:15.004Z,22.43
2017-07-11T12:04:43.335Z,30.50
2017-07-11T12:07:12.665Z,26.57
2017-07-11T12:09:41.106Z,33.73
2017-07-11T12:12:09.423Z,41.07
2017-07-11T12:14:37.732Z,58.03
2017-07-11T12:17:06.859Z,16.27
2017-07-11T12:19:35.931Z,20.60
2017-07-11T12:22:04.370Z,19.50
2017-07-11T12:24:32.664Z,17.70
2017-07-11T12:27:00.962Z,24.50
2017-07-11T12:29:29.298Z,24.87
2017-07-11T12:31:57.635Z,44.07
2017-07-11T12:34:26.029Z,41.17
2017-07-11T12:36:55.091Z,25.43
2017-07-11T12:39:23.453Z,23.90
2017-07-11T12:41:51.805Z,26.43
2017-07-11T12:44:20.140Z,23.27
2017-07-11T12:46:48.495Z,33.87
2017-07-11T12:49:16.836Z,39.43
2017-07-11T12:51:45.303Z,21.77
2017-07-11T12:54:13.645Z,38.63
2017-07-11T12:56:41.941Z,37.23
2017-07-11T12:59:10.272Z,28.47
2017-07-11T13:01:38.604Z,25.23
2017-07-11T13:04:06.986Z,29.17
2017-07-11T13:06:35.341Z,37.63
2017-07-11T13:09:03.723Z,56.10
2017-07-11T13:11:32.127Z,42.00
2017-07-11T13:14:00.597Z,43.97
2017-07-11T13:16:28.931Z,51.20
2017-07-11T13:18:57.286Z,46.70
2017-07-11T13:21:25.808Z,39.10
2017-07-11T13:23:54.224Z,38.73
2017-07-11T13:26:22.592Z,28.20
2017-07-11T13:28:51.087Z,24.57
2017-07-11T13:31:19.463Z,27.73
2017-07-11T13:33:47.808Z,54.37
2017-07-11T13:36:16.173Z,32.30
2017-07-11T13:38:44.586Z,28.73
2017-07-11T13:41:13.054Z,29.67
2017-07-11T13:43:41.386Z,22.50
2017-07-11T13:46:09.692Z,27.57
2017-07-11T13:48:38.043Z,31.60
2017-07-11T13:51:06.388Z,52.33
2017-07-11T13:53:34.714Z,26.67
2017-07-11T14:05:33.291Z,29.03
2017-07-11T14:08:01.637Z,37.50
2017-07-11T14:10:29.933Z,28.60
2017-07-11T14:12:58.266Z,27.03
2017-07-11T14:15:26.564Z,25.83
2017-07-11T14:17:55.199Z,23.80
2017-07-11T14:20:23.487Z,31.90
2017-07-11T14:22:51.792Z,28.40
2017-07-11T14:25:20.128Z,28.57
2017-07-11T14:27:48.439Z,24.33
2017-07-11T14:30:17.663Z,24.00
2017-07-11T14:32:46.850Z,27.67
2017-07-11T14:35:15.163Z,23.97
2017-07-11T14:37:43.723Z,33.60
2017-07-11T14:40:12.034Z,24.93
2017-07-11T14:42:40.376Z,24.10
2017-07-11T14:45:09.465Z,26.70
2017-07-11T14:47:38.571Z,23.47
2017-07-11T14:50:06.900Z,20.70
2017-07-11T14:52:35.203Z,21.70
2017-07-11T14:55:03.531Z,23.00
2017-07-11T14:57:31.875Z,39.13
2017-07-11T15:00:00.995Z,40.10
2017-07-11T15:02:29.331Z,30.50
2017-07-11T15:04:57.632Z,25.87
2017-07-11T15:07:25.988Z,36.47
2017-07-11T15:09:55.088Z,29.80
2017-07-11T15:12:23.406Z,22.30
2017-07-11T15:14:51.711Z,39.43
2017-07-11T15:17:20.015Z,18.87
2017-07-11T15:19:49.116Z,19.80
2017-07-11T15:22:18.194Z,33.40
2017-07-11T15:24:46.526Z,27.73
2017-07-11T15:27:14.835Z,28.40
2017-07-11T15:29:43.168Z,41.83
2017-07-11T15:32:11.508Z,28.10
2017-07-11T15:34:40.603Z,34.07
2017-07-11T15:37:08.939Z,23.47
2017-07-11T15:39:37.261Z,33.20
2017-07-11T15:42:06.377Z,25.87
2017-07-11T15:44:35.424Z,38.17
2017-07-11T15:47:03.916Z,25.83
2017-07-11T15:49:33.016Z,29.60
2017-07-11T15:52:02.452Z,24.83
2017-07-11T15:54:30.775Z,36.10
2017-07-11T15:56:59.089Z,26.83
2017-07-11T15:59:28.299Z,15.37
2017-07-11T16:01:56.580Z,15.80
2017-07-11T16:04:25.100Z,15.77
2017-07-11T16:06:53.387Z,14.53
2017-07-11T16:09:21.713Z,17.17
2017-07-11T16:11:50.805Z,16.97
2017-07-11T16:14:19.115Z,15.87
2017-07-11T16:16:47.664Z,16.10
2017-07-11T16:19:16.040Z,14.80
2017-07-11T16:21:44.328Z,16.33
2017-07-11T16:24:12.672Z,20.47
2017-07-11T16:26:40.988Z,16.53
2017-07-11T16:29:09.328Z,16.80
2017-07-11T16:31:38.441Z,17.77
2017-07-11T16:34:07.643Z,22.10
2017-07-11T16:36:35.958Z,18.80
2017-07-11T16:39:04.256Z,18.20
2017-07-11T16:41:32.581Z,22.43
2017-07-11T16:44:00.892Z,18.30
2017-07-11T16:46:29.247Z,15.40
2017-07-11T16:48:57.568Z,15.70
2017-07-11T16:51:25.888Z,22.30
2017-07-11T16:53:54.253Z,23.13
2017-07-11T16:56:23.804Z,24.17
2017-07-11T16:58:52.153Z,21.37
2017-07-11T17:01:21.295Z,25.87
2017-07-11T17:03:49.647Z,35.20
2017-07-11T17:06:17.986Z,27.37
2017-07-11T17:08:46.316Z,22.60
2017-07-11T17:11:14.603Z,25.87
2017-07-11T17:13:42.919Z,22.00
2017-07-11T17:16:11.980Z,15.43
2017-07-11T17:18:40.303Z,17.60
2017-07-11T17:21:08.666Z,29.23
2017-07-11T17:23:37.106Z,23.03
2017-07-11T17:26:05.403Z,22.40
2017-07-11T17:28:33.713Z,20.60
2017-07-11T17:31:02.067Z,16.50
2017-07-11T17:33:30.413Z,17.50
2017-07-11T17:35:58.876Z,18.67
2017-07-11T17:38:27.200Z,24.47
2017-07-11T17:40:56.490Z,27.63
2017-07-11T17:43:24.819Z,25.77
2017-07-11T17:45:53.347Z,15.17
2017-07-11T17:48:21.659Z,27.30
2017-07-11T17:50:50.016Z,22.43
2017-07-11T17:53:19.091Z,19.80
2017-07-11T17:55:47.574Z,19.50
2017-07-11T17:58:15.907Z,24.97
2017-07-11T18:00:44.243Z,33.37
2017-07-11T18:03:12.621Z,19.77
2017-07-11T18:05:41.693Z,25.60
2017-07-11T18:08:10.046Z,22.00
2017-07-11T18:10:38.395Z,29.93
2017-07-11T18:13:06.728Z,29.20
2017-07-11T18:15:35.087Z,26.80
2017-07-11T18:18:03.387Z,27.83
2017-07-11T18:20:32.502Z,15.80
2017-07-11T18:23:00.879Z,17.03
2017-07-11T18:25:29.212Z,21.77
2017-07-11T18:27:57.528Z,18.27
2017-07-11T18:30:26.224Z,16.47
2017-07-11T18:32:55.319Z,10.27
2017-07-11T18:35:23.650Z,10.57
2017-07-11T18:37:52.015Z,11.90
2017-07-11T18:40:21.129Z,10.63
2017-07-11T18:42:50.242Z,10.40
2017-07-11T18:45:18.574Z,20.73
2017-07-11T18:47:46.957Z,13.10
2017-07-11T18:50:15.296Z,11.07
2017-07-11T18:52:43.787Z,13.03
2017-07-11T18:55:12.103Z,14.17
2017-07-11T18:57:40.432Z,13.30
2017-07-11T19:00:08.923Z,12.47
2017-07-11T19:02:37.288Z,11.50
2017-07-11T19:05:05.659Z,11.30
2017-07-11T19:07:34.014Z,18.60
2017-07-11T19:10:02.387Z,20.27
2017-07-11T19:12:31.499Z,20.83
2017-07-11T19:14:59.873Z,20.57
2017-07-11T19:17:28.213Z,14.23
2017-07-11T19:19:56.562Z,19.00
2017-07-11T19:22:24.928Z,18.50
2017-07-11T19:24:53.296Z,24.57
2017-07-11T19:27:21.653Z,13.70
2017-07-11T19:29:50.070Z,21.97
2017-07-11T19:32:18.438Z,19.07
2017-07-11T19:34:46.801Z,24.27
2017-07-11T19:37:15.251Z,18.30
2017-07-11T19:39:44.368Z,19.13
2017-07-11T19:42:13.463Z,22.70
2017-07-11T19:44:41.950Z,12.13
2017-07-11T19:47:10.281Z,11.37
2017-07-11T19:49:38.670Z,12.23
2017-07-11T19:52:07.030Z,14.87
2017-07-11T19:54:35.377Z,12.97
2017-07-11T19:57:03.771Z,18.40
2017-07-11T19:59:32.136Z,17.73
2017-07-11T20:02:00.606Z,14.30
2017-07-11T20:04:29.192Z,17.07
2017-07-11T20:06:57.537Z,24.03
2017-07-11T20:09:26.653Z,19.40
2017-07-11T20:11:55.036Z,25.47
2017-07-11T20:14:23.540Z,13.93
2017-07-11T20:16:51.926Z,21.03
2017-07-11T20:19:20.286Z,15.27
2017-07-11T20:21:48.636Z,9.33
2017-07-11T20:24:16.971Z,13.40
2017-07-11T20:26:45.314Z,11.57
2017-07-11T20:29:13.647Z,14.90
2017-07-11T20:31:42.004Z,14.47
2017-07-11T20:34:10.389Z,9.03
2017-07-11T20:36:39.511Z,9.50
2017-07-11T20:39:08.640Z,16.30
2017-07-11T20:41:36.978Z,14.53
2017-07-11T20:44:05.467Z,24.57
2017-07-11T20:46:33.803Z,24.87
2017-07-11T20:49:02.176Z,23.47
2017-07-11T20:51:30.526Z,33.90
2017-07-11T20:53:58.871Z,28.93
2017-07-11T20:56:27.245Z,17.00
2017-07-11T20:58:56.372Z,17.00
2017-07-11T21:01:24.712Z,15.57
2017-07-11T21:03:53.114Z,18.40
2017-07-11T21:06:21.458Z,23.17
2017-07-11T21:08:49.811Z,12.20
2017-07-11T21:11:18.156Z,16.93
2017-07-11T21:13:46.647Z,38.57
2017-07-11T21:16:14.975Z,16.27
2017-07-11T21:18:44.084Z,29.00
2017-07-11T21:21:13.204Z,31.03
2017-07-11T21:23:56.384Z,29.80
2017-07-11T21:26:39.590Z,28.30
2017-07-11T21:29:22.769Z,45.67
2017-07-11T21:32:06.723Z,19.73
2017-07-11T21:34:50.252Z,10.67
2017-07-11T21:37:33.488Z,10.83
2017-07-11T21:40:16.689Z,9.07
2017-07-11T21:43:00.623Z,11.00
2017-07-11T21:45:44.584Z,11.33
2017-07-11T21:48:27.752Z,13.53
2017-07-11T21:51:11.759Z,8.90
2017-07-11T21:53:54.910Z,8.03
2017-07-11T21:56:38.100Z,8.53
2017-07-11T21:59:22.050Z,11.27
2017-07-11T22:02:05.244Z,12.27
2017-07-11T22:04:49.187Z,14.70
2017-07-11T22:07:32.383Z,10.97
2017-07-11T22:10:15.561Z,10.93
2017-07-11T22:12:58.751Z,8.87
2017-07-11T22:15:41.908Z,9.30
2017-07-11T22:18:28.888Z,8.77
2017-07-11T22:21:14.909Z,10.30
2017-07-11T22:23:58.842Z,10.73
2017-07-11T22:26:42.808Z,8.90
2017-07-11T22:29:26.022Z,11.40
2017-07-11T22:32:09.192Z,8.23
2017-07-11T22:34:52.411Z,11.70
2017-07-11T22:37:35.576Z,9.30
2017-07-11T22:40:18.786Z,11.13
2017-07-11T22:43:01.947Z,9.40
2017-07-11T22:45:45.936Z,10.63
2017-07-11T22:48:29.109Z,8.67
2017-07-11T22:51:13.087Z,16.93
2017-07-11T22:53:56.251Z,14.70
2017-07-11T22:56:39.467Z,10.33
2017-07-11T22:59:22.644Z,20.33
2017-07-11T23:02:05.859Z,16.20
2017-07-11T23:04:49.815Z,10.67
2017-07-11T23:07:33.032Z,11.90
2017-07-11T23:10:17.019Z,12.00
2017-07-11T23:13:00.196Z,10.53
2017-07-11T23:15:44.173Z,11.47
2017-07-11T23:18:27.343Z,9.17
2017-07-11T23:21:10.539Z,16.73
2017-07-11T23:23:53.758Z,10.57
2017-07-11T23:26:36.936Z,16.17
2017-07-11T23:29:20.912Z,17.57
2017-07-11T23:32:04.081Z,15.57
2017-07-11T23:34:47.289Z,12.30
2017-07-11T23:37:30.455Z,13.70
2017-07-11T23:40:14.443Z,11.57
2017-07-11T23:42:57.605Z,9.17
2017-07-11T23:45:40.816Z,12.07
2017-07-11T23:48:23.988Z,14.13
2017-07-11T23:51:07.195Z,8.67
2017-07-11T23:53:51.133Z,14.13
2017-07-11T23:56:35.107Z,9.33
2017-07-11T23:59:18.274Z,9.70
